sensor_id;sensor_type;location;lat;lon;timestamp;pressure;altitude;pressure_sealevel;temperature
17142;BMP180;32805;53.556;9.944;2023-04-24T00:00:07;99823.00;;;12.60
17142;BMP180;32805;53.556;9.944;2023-04-24T00:02:37;99824.00;;;12.60
17142;BMP180;32805;53.556;9.944;2023-04-24T00:05:07;99806.00;;;12.60
17142;BMP180;32805;53.556;9.944;2023-04-24T00:07:35;99802.00;;;12.60
17142;BMP180;32805;53.556;9.944;2023-04-24T00:10:03;99789.00;;;12.60
17142;BMP180;32805;53.556;9.944;2023-04-24T00:12:31;99785.00;;;12.60
17142;BMP180;32805;53.556;9.944;2023-04-24T00:14:59;99778.00;;;12.60
17142;BMP180;32805;53.556;9.944;2023-04-24T00:17:27;99779.00;;;12.60
17142;BMP180;32805;53.556;9.944;2023-04-24T00:19:56;99770.00;;;12.60
17142;BMP180;32805;53.556;9.944;2023-04-24T00:22:25;99774.00;;;12.50
17142;BMP180;32805;53.556;9.944;2023-04-24T00:24:54;99766.00;;;12.50
17142;BMP180;32805;53.556;9.944;2023-04-24T00:27:21;99751.00;;;12.60
17142;BMP180;32805;53.556;9.944;2023-04-24T00:29:49;99745.00;;;12.50
17142;BMP180;32805;53.556;9.944;2023-04-24T00:32:17;99761.00;;;12.50
17142;BMP180;32805;53.556;9.944;2023-04-24T00:34:44;99758.00;;;12.50
17142;BMP180;32805;53.556;9.944;2023-04-24T00:37:13;99755.00;;;12.50
17142;BMP180;32805;53.556;9.944;2023-04-24T00:39:43;99756.00;;;12.40
17142;BMP180;32805;53.556;9.944;2023-04-24T00:42:11;99749.00;;;12.40
17142;BMP180;32805;53.556;9.944;2023-04-24T00:44:40;99755.00;;;12.40
17142;BMP180;32805;53.556;9.944;2023-04-24T00:47:08;99748.00;;;12.40
17142;BMP180;32805;53.556;9.944;2023-04-24T00:49:35;99752.00;;;12.20
17142;BMP180;32805;53.556;9.944;2023-04-24T00:52:03;99752.00;;;12.20
17142;BMP180;32805;53.556;9.944;2023-04-24T00:54:35;99744.00;;;12.10
17142;BMP180;32805;53.556;9.944;2023-04-24T00:57:03;99743.00;;;12.10
17142;BMP180;32805;53.556;9.944;2023-04-24T00:59:31;99752.00;;;12.00
17142;BMP180;32805;53.556;9.944;2023-04-24T01:01:59;99753.00;;;12.00
17142;BMP180;32805;53.556;9.944;2023-04-24T01:04:27;99762.00;;;12.00
17142;BMP180;32805;53.556;9.944;2023-04-24T01:06:55;99755.00;;;12.00
17142;BMP180;32805;53.556;9.944;2023-04-24T01:09:24;99756.00;;;11.90
17142;BMP180;32805;53.556;9.944;2023-04-24T01:11:53;99754.00;;;11.90
17142;BMP180;32805;53.556;9.944;2023-04-24T01:14:21;99756.00;;;11.90
17142;BMP180;32805;53.556;9.944;2023-04-24T01:16:49;99754.00;;;11.80
17142;BMP180;32805;53.556;9.944;2023-04-24T01:19:18;99757.00;;;11.80
17142;BMP180;32805;53.556;9.944;2023-04-24T01:21:47;99749.00;;;11.80
17142;BMP180;32805;53.556;9.944;2023-04-24T01:24:18;99749.00;;;11.80
17142;BMP180;32805;53.556;9.944;2023-04-24T01:26:46;99756.00;;;11.80
17142;BMP180;32805;53.556;9.944;2023-04-24T01:29:14;99749.00;;;11.90
17142;BMP180;32805;53.556;9.944;2023-04-24T01:31:42;99746.00;;;11.90
17142;BMP180;32805;53.556;9.944;2023-04-24T01:34:10;99739.00;;;11.90
17142;BMP180;32805;53.556;9.944;2023-04-24T01:36:38;99740.00;;;12.00
17142;BMP180;32805;53.556;9.944;2023-04-24T01:39:06;99739.00;;;12.00
17142;BMP180;32805;53.556;9.944;2023-04-24T01:41:35;99739.00;;;12.00
17142;BMP180;32805;53.556;9.944;2023-04-24T01:44:03;99746.00;;;12.10
17142;BMP180;32805;53.556;9.944;2023-04-24T01:46:31;99749.00;;;12.10
17142;BMP180;32805;53.556;9.944;2023-04-24T01:49:00;99745.00;;;12.10
17142;BMP180;32805;53.556;9.944;2023-04-24T01:51:28;99745.00;;;12.10
17142;BMP180;32805;53.556;9.944;2023-04-24T01:53:56;99740.00;;;12.10
17142;BMP180;32805;53.556;9.944;2023-04-24T01:56:24;99738.00;;;12.10
17142;BMP180;32805;53.556;9.944;2023-04-24T01:58:54;99725.00;;;12.10
17142;BMP180;32805;53.556;9.944;2023-04-24T02:01:23;99718.00;;;12.20
17142;BMP180;32805;53.556;9.944;2023-04-24T02:03:51;99721.00;;;12.10
17142;BMP180;32805;53.556;9.944;2023-04-24T02:06:19;99707.00;;;12.00
17142;BMP180;32805;53.556;9.944;2023-04-24T02:08:46;99721.00;;;11.90
17142;BMP180;32805;53.556;9.944;2023-04-24T02:11:14;99719.00;;;11.80
17142;BMP180;32805;53.556;9.944;2023-04-24T02:13:41;99705.00;;;11.80
17142;BMP180;32805;53.556;9.944;2023-04-24T02:16:10;99702.00;;;11.70
17142;BMP180;32805;53.556;9.944;2023-04-24T02:18:38;99702.00;;;11.70
17142;BMP180;32805;53.556;9.944;2023-04-24T02:21:06;99703.00;;;11.60
17142;BMP180;32805;53.556;9.944;2023-04-24T02:23:34;99704.00;;;11.60
17142;BMP180;32805;53.556;9.944;2023-04-24T02:26:02;99704.00;;;11.50
17142;BMP180;32805;53.556;9.944;2023-04-24T02:28:29;99709.00;;;11.50
17142;BMP180;32805;53.556;9.944;2023-04-24T02:30:57;99707.00;;;11.50
17142;BMP180;32805;53.556;9.944;2023-04-24T02:33:26;99696.00;;;11.50
17142;BMP180;32805;53.556;9.944;2023-04-24T02:35:54;99709.00;;;11.40
17142;BMP180;32805;53.556;9.944;2023-04-24T02:38:21;99701.00;;;11.40
17142;BMP180;32805;53.556;9.944;2023-04-24T02:40:49;99695.00;;;11.30
17142;BMP180;32805;53.556;9.944;2023-04-24T02:43:17;99702.00;;;11.30
17142;BMP180;32805;53.556;9.944;2023-04-24T02:45:44;99703.00;;;11.30
17142;BMP180;32805;53.556;9.944;2023-04-24T02:48:12;99701.00;;;11.30
17142;BMP180;32805;53.556;9.944;2023-04-24T02:50:41;99702.00;;;11.30
17142;BMP180;32805;53.556;9.944;2023-04-24T02:53:09;99708.00;;;11.20
17142;BMP180;32805;53.556;9.944;2023-04-24T02:55:36;99704.00;;;11.20
17142;BMP180;32805;53.556;9.944;2023-04-24T02:58:04;99704.00;;;11.20
17142;BMP180;32805;53.556;9.944;2023-04-24T03:00:32;99705.00;;;11.20
17142;BMP180;32805;53.556;9.944;2023-04-24T03:03:00;99695.00;;;11.10
17142;BMP180;32805;53.556;9.944;2023-04-24T03:05:28;99697.00;;;11.10
17142;BMP180;32805;53.556;9.944;2023-04-24T03:07:58;99697.00;;;11.10
17142;BMP180;32805;53.556;9.944;2023-04-24T03:10:26;99695.00;;;11.10
17142;BMP180;32805;53.556;9.944;2023-04-24T03:12:53;99683.00;;;11.00
17142;BMP180;32805;53.556;9.944;2023-04-24T03:15:21;99693.00;;;11.00
17142;BMP180;32805;53.556;9.944;2023-04-24T03:17:49;99692.00;;;11.00
17142;BMP180;32805;53.556;9.944;2023-04-24T03:20:17;99690.00;;;11.00
17142;BMP180;32805;53.556;9.944;2023-04-24T03:22:45;99697.00;;;10.90
17142;BMP180;32805;53.556;9.944;2023-04-24T03:25:14;99703.00;;;10.90
17142;BMP180;32805;53.556;9.944;2023-04-24T03:27:41;99703.00;;;10.90
17142;BMP180;32805;53.556;9.944;2023-04-24T03:30:29;99705.00;;;10.90
17142;BMP180;32805;53.556;9.944;2023-04-24T03:32:59;99710.00;;;10.90
17142;BMP180;32805;53.556;9.944;2023-04-24T03:35:31;99706.00;;;10.90
17142;BMP180;32805;53.556;9.944;2023-04-24T03:38:02;99698.00;;;10.80
17142;BMP180;32805;53.556;9.944;2023-04-24T03:40:57;99699.00;;;10.80
17142;BMP180;32805;53.556;9.944;2023-04-24T03:43:36;99696.00;;;10.80
17142;BMP180;32805;53.556;9.944;2023-04-24T03:46:05;99699.00;;;10.80
17142;BMP180;32805;53.556;9.944;2023-04-24T03:48:37;99694.00;;;10.80
17142;BMP180;32805;53.556;9.944;2023-04-24T03:51:06;99699.00;;;10.80
17142;BMP180;32805;53.556;9.944;2023-04-24T03:53:35;99709.00;;;10.70
17142;BMP180;32805;53.556;9.944;2023-04-24T03:56:04;99703.00;;;10.80
17142;BMP180;32805;53.556;9.944;2023-04-24T03:58:33;99698.00;;;10.70
17142;BMP180;32805;53.556;9.944;2023-04-24T04:01:00;99696.00;;;10.70
17142;BMP180;32805;53.556;9.944;2023-04-24T04:03:53;99688.00;;;10.70
17142;BMP180;32805;53.556;9.944;2023-04-24T04:06:24;99688.00;;;10.70
17142;BMP180;32805;53.556;9.944;2023-04-24T04:08:54;99695.00;;;10.70
17142;BMP180;32805;53.556;9.944;2023-04-24T04:11:24;99685.00;;;10.70
17142;BMP180;32805;53.556;9.944;2023-04-24T04:13:52;99685.00;;;10.70
17142;BMP180;32805;53.556;9.944;2023-04-24T04:16:21;99689.00;;;10.70
17142;BMP180;32805;53.556;9.944;2023-04-24T04:18:52;99697.00;;;10.70
17142;BMP180;32805;53.556;9.944;2023-04-24T04:21:20;99690.00;;;10.70
17142;BMP180;32805;53.556;9.944;2023-04-24T04:23:51;99683.00;;;10.70
17142;BMP180;32805;53.556;9.944;2023-04-24T04:26:26;99690.00;;;10.60
17142;BMP180;32805;53.556;9.944;2023-04-24T04:29:00;99684.00;;;10.60
17142;BMP180;32805;53.556;9.944;2023-04-24T04:31:30;99698.00;;;10.70
17142;BMP180;32805;53.556;9.944;2023-04-24T04:34:02;99690.00;;;10.70
17142;BMP180;32805;53.556;9.944;2023-04-24T04:36:32;99700.00;;;10.70
17142;BMP180;32805;53.556;9.944;2023-04-24T04:39:16;99699.00;;;10.70
17142;BMP180;32805;53.556;9.944;2023-04-24T04:41:59;99700.00;;;10.80
17142;BMP180;32805;53.556;9.944;2023-04-24T04:44:35;99700.00;;;11.00
17142;BMP180;32805;53.556;9.944;2023-04-24T04:47:05;99700.00;;;11.10
17142;BMP180;32805;53.556;9.944;2023-04-24T04:49:36;99706.00;;;11.30
17142;BMP180;32805;53.556;9.944;2023-04-24T04:52:10;99703.00;;;11.40
17142;BMP180;32805;53.556;9.944;2023-04-24T04:54:37;99709.00;;;11.50
17142;BMP180;32805;53.556;9.944;2023-04-24T04:57:06;99701.00;;;11.50
17142;BMP180;32805;53.556;9.944;2023-04-24T04:59:35;99699.00;;;11.50
17142;BMP180;32805;53.556;9.944;2023-04-24T05:02:08;99700.00;;;11.40
17142;BMP180;32805;53.556;9.944;2023-04-24T05:04:36;99690.00;;;11.30
17142;BMP180;32805;53.556;9.944;2023-04-24T05:07:04;99686.00;;;11.10
17142;BMP180;32805;53.556;9.944;2023-04-24T05:09:34;99696.00;;;11.10
17142;BMP180;32805;53.556;9.944;2023-04-24T05:12:04;99707.00;;;11.10
17142;BMP180;32805;53.556;9.944;2023-04-24T05:14:38;99693.00;;;11.10
17142;BMP180;32805;53.556;9.944;2023-04-24T05:17:07;99696.00;;;11.10
17142;BMP180;32805;53.556;9.944;2023-04-24T05:19:34;99696.00;;;11.10
17142;BMP180;32805;53.556;9.944;2023-04-24T05:22:05;99704.00;;;11.10
17142;BMP180;32805;53.556;9.944;2023-04-24T05:24:38;99700.00;;;11.20
17142;BMP180;32805;53.556;9.944;2023-04-24T05:27:13;99705.00;;;11.20
17142;BMP180;32805;53.556;9.944;2023-04-24T05:29:42;99692.00;;;11.20
17142;BMP180;32805;53.556;9.944;2023-04-24T05:32:12;99693.00;;;11.30
17142;BMP180;32805;53.556;9.944;2023-04-24T05:34:40;99698.00;;;11.30
17142;BMP180;32805;53.556;9.944;2023-04-24T05:37:08;99696.00;;;11.30
17142;BMP180;32805;53.556;9.944;2023-04-24T05:39:36;99684.00;;;11.30
17142;BMP180;32805;53.556;9.944;2023-04-24T05:42:04;99698.00;;;11.40
17142;BMP180;32805;53.556;9.944;2023-04-24T05:44:31;99704.00;;;11.40
17142;BMP180;32805;53.556;9.944;2023-04-24T05:47:00;99701.00;;;11.40
17142;BMP180;32805;53.556;9.944;2023-04-24T05:49:28;99705.00;;;11.40
17142;BMP180;32805;53.556;9.944;2023-04-24T05:51:56;99702.00;;;11.40
17142;BMP180;32805;53.556;9.944;2023-04-24T05:54:24;99707.00;;;11.50
17142;BMP180;32805;53.556;9.944;2023-04-24T05:56:52;99703.00;;;11.50
17142;BMP180;32805;53.556;9.944;2023-04-24T05:59:30;99702.00;;;11.50
17142;BMP180;32805;53.556;9.944;2023-04-24T06:01:57;99698.00;;;11.50
17142;BMP180;32805;53.556;9.944;2023-04-24T06:04:27;99691.00;;;11.60
17142;BMP180;32805;53.556;9.944;2023-04-24T06:06:57;99701.00;;;11.60
17142;BMP180;32805;53.556;9.944;2023-04-24T06:09:25;99706.00;;;11.60
17142;BMP180;32805;53.556;9.944;2023-04-24T06:11:53;99708.00;;;11.70
17142;BMP180;32805;53.556;9.944;2023-04-24T06:14:24;99707.00;;;11.70
17142;BMP180;32805;53.556;9.944;2023-04-24T06:17:15;99711.00;;;11.70
17142;BMP180;32805;53.556;9.944;2023-04-24T06:19:45;99713.00;;;11.80
17142;BMP180;32805;53.556;9.944;2023-04-24T06:22:13;99713.00;;;11.80
17142;BMP180;32805;53.556;9.944;2023-04-24T06:24:41;99713.00;;;11.90
17142;BMP180;32805;53.556;9.944;2023-04-24T06:27:09;99717.00;;;11.90
17142;BMP180;32805;53.556;9.944;2023-04-24T06:29:39;99711.00;;;12.00
17142;BMP180;32805;53.556;9.944;2023-04-24T06:32:07;99705.00;;;12.00
17142;BMP180;32805;53.556;9.944;2023-04-24T06:34:35;99713.00;;;12.00
17142;BMP180;32805;53.556;9.944;2023-04-24T06:37:04;99707.00;;;12.00
17142;BMP180;32805;53.556;9.944;2023-04-24T06:39:32;99705.00;;;12.10
17142;BMP180;32805;53.556;9.944;2023-04-24T06:41:59;99718.00;;;12.10
17142;BMP180;32805;53.556;9.944;2023-04-24T06:44:27;99722.00;;;12.10
17142;BMP180;32805;53.556;9.944;2023-04-24T06:46:54;99718.00;;;12.20
17142;BMP180;32805;53.556;9.944;2023-04-24T06:49:22;99724.00;;;12.30
17142;BMP180;32805;53.556;9.944;2023-04-24T06:51:50;99722.00;;;12.40
17142;BMP180;32805;53.556;9.944;2023-04-24T06:54:19;99718.00;;;12.50
17142;BMP180;32805;53.556;9.944;2023-04-24T06:56:47;99718.00;;;12.60
17142;BMP180;32805;53.556;9.944;2023-04-24T06:59:16;99709.00;;;12.60
17142;BMP180;32805;53.556;9.944;2023-04-24T07:01:43;99701.00;;;12.60
17142;BMP180;32805;53.556;9.944;2023-04-24T07:04:11;99717.00;;;12.70
17142;BMP180;32805;53.556;9.944;2023-04-24T07:06:40;99711.00;;;12.70
17142;BMP180;32805;53.556;9.944;2023-04-24T07:09:07;99712.00;;;12.80
17142;BMP180;32805;53.556;9.944;2023-04-24T07:11:37;99731.00;;;12.80
17142;BMP180;32805;53.556;9.944;2023-04-24T07:14:07;99722.00;;;13.00
17142;BMP180;32805;53.556;9.944;2023-04-24T07:16:35;99724.00;;;13.20
17142;BMP180;32805;53.556;9.944;2023-04-24T07:19:03;99715.00;;;13.40
17142;BMP180;32805;53.556;9.944;2023-04-24T07:21:30;99720.00;;;13.60
17142;BMP180;32805;53.556;9.944;2023-04-24T07:23:58;99715.00;;;13.70
17142;BMP180;32805;53.556;9.944;2023-04-24T07:26:26;99720.00;;;13.60
17142;BMP180;32805;53.556;9.944;2023-04-24T07:28:55;99724.00;;;13.60
17142;BMP180;32805;53.556;9.944;2023-04-24T07:31:23;99723.00;;;13.50
17142;BMP180;32805;53.556;9.944;2023-04-24T07:33:50;99735.00;;;13.60
17142;BMP180;32805;53.556;9.944;2023-04-24T07:36:18;99731.00;;;13.60
17142;BMP180;32805;53.556;9.944;2023-04-24T07:38:46;99737.00;;;13.60
17142;BMP180;32805;53.556;9.944;2023-04-24T07:41:14;99731.00;;;13.70
17142;BMP180;32805;53.556;9.944;2023-04-24T07:43:42;99724.00;;;13.80
17142;BMP180;32805;53.556;9.944;2023-04-24T07:46:11;99734.00;;;13.80
17142;BMP180;32805;53.556;9.944;2023-04-24T07:48:39;99741.00;;;14.10
17142;BMP180;32805;53.556;9.944;2023-04-24T07:51:06;99747.00;;;14.20
17142;BMP180;32805;53.556;9.944;2023-04-24T07:53:36;99764.00;;;14.40
17142;BMP180;32805;53.556;9.944;2023-04-24T07:56:04;99763.00;;;14.40
17142;BMP180;32805;53.556;9.944;2023-04-24T07:58:32;99764.00;;;14.60
17142;BMP180;32805;53.556;9.944;2023-04-24T08:00:59;99760.00;;;14.60
17142;BMP180;32805;53.556;9.944;2023-04-24T08:03:28;99764.00;;;14.50
17142;BMP180;32805;53.556;9.944;2023-04-24T08:05:56;99759.00;;;14.50
17142;BMP180;32805;53.556;9.944;2023-04-24T08:08:24;99748.00;;;14.50
17142;BMP180;32805;53.556;9.944;2023-04-24T08:10:53;99760.00;;;14.60
17142;BMP180;32805;53.556;9.944;2023-04-24T08:13:21;99758.00;;;14.60
17142;BMP180;32805;53.556;9.944;2023-04-24T08:15:49;99766.00;;;14.50
17142;BMP180;32805;53.556;9.944;2023-04-24T08:18:17;99766.00;;;14.40
17142;BMP180;32805;53.556;9.944;2023-04-24T08:20:46;99764.00;;;14.40
17142;BMP180;32805;53.556;9.944;2023-04-24T08:23:13;99763.00;;;14.50
17142;BMP180;32805;53.556;9.944;2023-04-24T08:25:41;99767.00;;;14.50
17142;BMP180;32805;53.556;9.944;2023-04-24T08:28:09;99763.00;;;14.60
17142;BMP180;32805;53.556;9.944;2023-04-24T08:30:37;99762.00;;;14.70
17142;BMP180;32805;53.556;9.944;2023-04-24T08:33:05;99777.00;;;14.90
17142;BMP180;32805;53.556;9.944;2023-04-24T08:35:33;99776.00;;;14.90
17142;BMP180;32805;53.556;9.944;2023-04-24T08:38:02;99782.00;;;15.00
17142;BMP180;32805;53.556;9.944;2023-04-24T08:40:34;99790.00;;;14.90
17142;BMP180;32805;53.556;9.944;2023-04-24T08:43:03;99792.00;;;14.80
17142;BMP180;32805;53.556;9.944;2023-04-24T08:45:32;99785.00;;;14.80
17142;BMP180;32805;53.556;9.944;2023-04-24T08:48:00;99783.00;;;14.90
17142;BMP180;32805;53.556;9.944;2023-04-24T08:50:28;99777.00;;;14.90
17142;BMP180;32805;53.556;9.944;2023-04-24T08:52:57;99785.00;;;15.00
17142;BMP180;32805;53.556;9.944;2023-04-24T08:55:26;99784.00;;;15.00
17142;BMP180;32805;53.556;9.944;2023-04-24T08:57:54;99789.00;;;15.10
17142;BMP180;32805;53.556;9.944;2023-04-24T09:00:22;99780.00;;;15.40
17142;BMP180;32805;53.556;9.944;2023-04-24T09:02:52;99775.00;;;15.70
17142;BMP180;32805;53.556;9.944;2023-04-24T09:05:21;99793.00;;;15.80
17142;BMP180;32805;53.556;9.944;2023-04-24T09:07:54;99779.00;;;15.90
17142;BMP180;32805;53.556;9.944;2023-04-24T09:10:23;99778.00;;;16.00
17142;BMP180;32805;53.556;9.944;2023-04-24T09:12:52;99786.00;;;16.20
17142;BMP180;32805;53.556;9.944;2023-04-24T09:15:21;99784.00;;;16.00
17142;BMP180;32805;53.556;9.944;2023-04-24T09:17:49;99783.00;;;15.90
17142;BMP180;32805;53.556;9.944;2023-04-24T09:20:17;99785.00;;;15.90
17142;BMP180;32805;53.556;9.944;2023-04-24T09:22:45;99793.00;;;15.80
17142;BMP180;32805;53.556;9.944;2023-04-24T09:25:12;99794.00;;;15.90
17142;BMP180;32805;53.556;9.944;2023-04-24T09:27:44;99797.00;;;15.90
17142;BMP180;32805;53.556;9.944;2023-04-24T09:30:21;99790.00;;;16.00
17142;BMP180;32805;53.556;9.944;2023-04-24T09:32:49;99791.00;;;15.90
17142;BMP180;32805;53.556;9.944;2023-04-24T09:35:16;99808.00;;;15.80
17142;BMP180;32805;53.556;9.944;2023-04-24T09:37:45;99804.00;;;15.60
17142;BMP180;32805;53.556;9.944;2023-04-24T09:40:16;99803.00;;;15.40
17142;BMP180;32805;53.556;9.944;2023-04-24T09:42:45;99802.00;;;15.30
17142;BMP180;32805;53.556;9.944;2023-04-24T09:45:14;99820.00;;;15.10
17142;BMP180;32805;53.556;9.944;2023-04-24T09:47:42;99809.00;;;14.90
17142;BMP180;32805;53.556;9.944;2023-04-24T09:50:14;99820.00;;;14.90
17142;BMP180;32805;53.556;9.944;2023-04-24T09:52:44;99821.00;;;14.90
17142;BMP180;32805;53.556;9.944;2023-04-24T09:55:14;99818.00;;;14.90
17142;BMP180;32805;53.556;9.944;2023-04-24T09:57:54;99817.00;;;14.80
17142;BMP180;32805;53.556;9.944;2023-04-24T10:00:25;99829.00;;;14.70
17142;BMP180;32805;53.556;9.944;2023-04-24T10:02:57;99826.00;;;14.70
17142;BMP180;32805;53.556;9.944;2023-04-24T10:05:30;99831.00;;;14.60
17142;BMP180;32805;53.556;9.944;2023-04-24T10:08:02;99829.00;;;14.60
17142;BMP180;32805;53.556;9.944;2023-04-24T10:10:31;99830.00;;;14.60
17142;BMP180;32805;53.556;9.944;2023-04-24T10:12:59;99822.00;;;14.50
17142;BMP180;32805;53.556;9.944;2023-04-24T10:15:29;99831.00;;;14.50
17142;BMP180;32805;53.556;9.944;2023-04-24T10:17:58;99828.00;;;14.40
17142;BMP180;32805;53.556;9.944;2023-04-24T10:20:27;99826.00;;;14.40
17142;BMP180;32805;53.556;9.944;2023-04-24T10:22:57;99826.00;;;14.60
17142;BMP180;32805;53.556;9.944;2023-04-24T10:25:26;99826.00;;;14.50
17142;BMP180;32805;53.556;9.944;2023-04-24T10:27:55;99843.00;;;14.60
17142;BMP180;32805;53.556;9.944;2023-04-24T10:30:27;99830.00;;;14.70
17142;BMP180;32805;53.556;9.944;2023-04-24T10:32:56;99835.00;;;14.80
17142;BMP180;32805;53.556;9.944;2023-04-24T10:35:24;99833.00;;;14.80
17142;BMP180;32805;53.556;9.944;2023-04-24T10:37:56;99830.00;;;14.90
17142;BMP180;32805;53.556;9.944;2023-04-24T10:40:26;99837.00;;;15.00
17142;BMP180;32805;53.556;9.944;2023-04-24T10:42:55;99838.00;;;15.10
17142;BMP180;32805;53.556;9.944;2023-04-24T10:45:25;99840.00;;;15.10
17142;BMP180;32805;53.556;9.944;2023-04-24T10:47:57;99830.00;;;15.20
17142;BMP180;32805;53.556;9.944;2023-04-24T10:50:42;99837.00;;;15.10
17142;BMP180;32805;53.556;9.944;2023-04-24T10:53:13;99838.00;;;15.20
17142;BMP180;32805;53.556;9.944;2023-04-24T10:55:44;99831.00;;;15.20
17142;BMP180;32805;53.556;9.944;2023-04-24T10:58:12;99838.00;;;15.30
17142;BMP180;32805;53.556;9.944;2023-04-24T11:00:41;99832.00;;;15.30
17142;BMP180;32805;53.556;9.944;2023-04-24T11:03:24;99841.00;;;15.30
17142;BMP180;32805;53.556;9.944;2023-04-24T11:05:57;99842.00;;;15.30
17142;BMP180;32805;53.556;9.944;2023-04-24T11:08:27;99830.00;;;15.30
17142;BMP180;32805;53.556;9.944;2023-04-24T11:11:01;99824.00;;;15.50
17142;BMP180;32805;53.556;9.944;2023-04-24T11:16:27;99832.00;;;15.70
17142;BMP180;32805;53.556;9.944;2023-04-24T11:19:02;99838.00;;;15.60
17142;BMP180;32805;53.556;9.944;2023-04-24T11:21:41;99841.00;;;15.70
17142;BMP180;32805;53.556;9.944;2023-04-24T11:24:29;99834.00;;;15.80
17142;BMP180;32805;53.556;9.944;2023-04-24T11:26:59;99841.00;;;15.70
17142;BMP180;32805;53.556;9.944;2023-04-24T11:29:39;99834.00;;;15.60
17142;BMP180;32805;53.556;9.944;2023-04-24T11:32:24;99824.00;;;15.80
17142;BMP180;32805;53.556;9.944;2023-04-24T11:34:54;99832.00;;;15.70
17142;BMP180;32805;53.556;9.944;2023-04-24T11:37:22;99827.00;;;15.70
17142;BMP180;32805;53.556;9.944;2023-04-24T11:39:55;99830.00;;;15.50
17142;BMP180;32805;53.556;9.944;2023-04-24T11:42:23;99832.00;;;15.50
17142;BMP180;32805;53.556;9.944;2023-04-24T11:44:52;99844.00;;;15.50
17142;BMP180;32805;53.556;9.944;2023-04-24T11:47:28;99845.00;;;15.40
17142;BMP180;32805;53.556;9.944;2023-04-24T11:49:58;99833.00;;;15.30
17142;BMP180;32805;53.556;9.944;2023-04-24T11:52:27;99831.00;;;15.10
17142;BMP180;32805;53.556;9.944;2023-04-24T11:54:54;99842.00;;;14.90
17142;BMP180;32805;53.556;9.944;2023-04-24T11:57:24;99843.00;;;14.80
17142;BMP180;32805;53.556;9.944;2023-04-24T11:59:54;99850.00;;;14.80
17142;BMP180;32805;53.556;9.944;2023-04-24T12:02:22;99841.00;;;15.00
17142;BMP180;32805;53.556;9.944;2023-04-24T12:04:52;99830.00;;;15.20
17142;BMP180;32805;53.556;9.944;2023-04-24T12:07:22;99831.00;;;15.30
17142;BMP180;32805;53.556;9.944;2023-04-24T12:09:56;99838.00;;;15.40
17142;BMP180;32805;53.556;9.944;2023-04-24T12:12:25;99840.00;;;15.40
17142;BMP180;32805;53.556;9.944;2023-04-24T12:14:55;99839.00;;;15.40
17142;BMP180;32805;53.556;9.944;2023-04-24T12:17:24;99831.00;;;15.20
17142;BMP180;32805;53.556;9.944;2023-04-24T12:19:57;99836.00;;;15.00
17142;BMP180;32805;53.556;9.944;2023-04-24T12:22:27;99846.00;;;14.80
17142;BMP180;32805;53.556;9.944;2023-04-24T12:24:56;99853.00;;;14.70
17142;BMP180;32805;53.556;9.944;2023-04-24T12:27:24;99850.00;;;14.60
17142;BMP180;32805;53.556;9.944;2023-04-24T12:29:52;99850.00;;;14.50
17142;BMP180;32805;53.556;9.944;2023-04-24T12:32:20;99851.00;;;14.50
17142;BMP180;32805;53.556;9.944;2023-04-24T12:34:49;99854.00;;;14.50
17142;BMP180;32805;53.556;9.944;2023-04-24T12:37:17;99844.00;;;14.60
17142;BMP180;32805;53.556;9.944;2023-04-24T12:39:59;99849.00;;;14.60
17142;BMP180;32805;53.556;9.944;2023-04-24T12:42:28;99847.00;;;14.60
17142;BMP180;32805;53.556;9.944;2023-04-24T12:44:57;99855.00;;;14.60
17142;BMP180;32805;53.556;9.944;2023-04-24T12:47:26;99854.00;;;14.40
17142;BMP180;32805;53.556;9.944;2023-04-24T12:49:55;99866.00;;;14.30
17142;BMP180;32805;53.556;9.944;2023-04-24T12:52:22;99869.00;;;14.20
17142;BMP180;32805;53.556;9.944;2023-04-24T12:54:53;99862.00;;;14.00
17142;BMP180;32805;53.556;9.944;2023-04-24T12:57:23;99865.00;;;13.90
17142;BMP180;32805;53.556;9.944;2023-04-24T12:59:53;99872.00;;;14.00
17142;BMP180;32805;53.556;9.944;2023-04-24T13:02:21;99873.00;;;14.00
17142;BMP180;32805;53.556;9.944;2023-04-24T13:04:49;99874.00;;;14.00
17142;BMP180;32805;53.556;9.944;2023-04-24T13:07:17;99872.00;;;13.90
17142;BMP180;32805;53.556;9.944;2023-04-24T13:09:46;99871.00;;;13.90
17142;BMP180;32805;53.556;9.944;2023-04-24T13:12:15;99878.00;;;13.80
17142;BMP180;32805;53.556;9.944;2023-04-24T13:14:44;99867.00;;;13.80
17142;BMP180;32805;53.556;9.944;2023-04-24T13:17:13;99875.00;;;13.70
17142;BMP180;32805;53.556;9.944;2023-04-24T13:19:42;99884.00;;;13.80
17142;BMP180;32805;53.556;9.944;2023-04-24T13:22:11;99872.00;;;14.00
17142;BMP180;32805;53.556;9.944;2023-04-24T13:24:39;99872.00;;;14.00
17142;BMP180;32805;53.556;9.944;2023-04-24T13:27:08;99869.00;;;14.00
17142;BMP180;32805;53.556;9.944;2023-04-24T13:29:36;99872.00;;;13.90
17142;BMP180;32805;53.556;9.944;2023-04-24T13:32:05;99866.00;;;13.80
17142;BMP180;32805;53.556;9.944;2023-04-24T13:34:33;99870.00;;;13.80
17142;BMP180;32805;53.556;9.944;2023-04-24T13:37:02;99874.00;;;13.70
17142;BMP180;32805;53.556;9.944;2023-04-24T13:39:31;99869.00;;;13.70
17142;BMP180;32805;53.556;9.944;2023-04-24T13:41:59;99864.00;;;13.70
17142;BMP180;32805;53.556;9.944;2023-04-24T13:44:29;99868.00;;;13.80
17142;BMP180;32805;53.556;9.944;2023-04-24T13:46:57;99864.00;;;13.80
17142;BMP180;32805;53.556;9.944;2023-04-24T13:49:29;99856.00;;;13.90
17142;BMP180;32805;53.556;9.944;2023-04-24T13:51:57;99863.00;;;14.00
17142;BMP180;32805;53.556;9.944;2023-04-24T13:54:25;99853.00;;;14.20
17142;BMP180;32805;53.556;9.944;2023-04-24T13:56:53;99852.00;;;14.30
17142;BMP180;32805;53.556;9.944;2023-04-24T13:59:21;99862.00;;;14.20
17142;BMP180;32805;53.556;9.944;2023-04-24T14:01:49;99855.00;;;14.20
17142;BMP180;32805;53.556;9.944;2023-04-24T14:04:17;99851.00;;;14.20
17142;BMP180;32805;53.556;9.944;2023-04-24T14:06:46;99855.00;;;14.20
17142;BMP180;32805;53.556;9.944;2023-04-24T14:09:14;99841.00;;;14.20
17142;BMP180;32805;53.556;9.944;2023-04-24T14:11:41;99845.00;;;14.30
17142;BMP180;32805;53.556;9.944;2023-04-24T14:14:09;99838.00;;;14.40
17142;BMP180;32805;53.556;9.944;2023-04-24T14:16:37;99849.00;;;14.30
17142;BMP180;32805;53.556;9.944;2023-04-24T14:19:05;99836.00;;;14.10
17142;BMP180;32805;53.556;9.944;2023-04-24T14:21:33;99850.00;;;14.00
17142;BMP180;32805;53.556;9.944;2023-04-24T14:24:02;99854.00;;;13.90